sensor_id;sensor_type;location;lat;lon;timestamp;P1;durP1;ratioP1;P2;durP2;ratioP2
12840;SDS011;6487;48.626;12.486;2023-03-19T00:01:03;14.30;;;12.80;;
12840;SDS011;6487;48.626;12.486;2023-03-19T00:03:33;17.60;;;12.70;;
12840;SDS011;6487;48.626;12.486;2023-03-19T00:06:02;18.87;;;12.97;;
12840;SDS011;6487;48.626;12.486;2023-03-19T00:08:31;14.83;;;12.83;;
12840;SDS011;6487;48.626;12.486;2023-03-19T00:11:04;16.77;;;13.77;;
12840;SDS011;6487;48.626;12.486;2023-03-19T00:13:33;20.00;;;14.43;;
12840;SDS011;6487;48.626;12.486;2023-03-19T00:16:02;17.03;;;14.13;;
12840;SDS011;6487;48.626;12.486;2023-03-19T00:18:31;17.63;;;14.20;;
12840;SDS011;6487;48.626;12.486;2023-03-19T00:20:59;17.43;;;13.60;;
12840;SDS011;6487;48.626;12.486;2023-03-19T00:23:28;16.70;;;13.90;;
12840;SDS011;6487;48.626;12.486;2023-03-19T00:25:58;17.30;;;13.10;;
12840;SDS011;6487;48.626;12.486;2023-03-19T00:28:27;16.73;;;13.73;;
12840;SDS011;6487;48.626;12.486;2023-03-19T00:30:55;19.60;;;13.30;;
12840;SDS011;6487;48.626;12.486;2023-03-19T00:33:24;17.60;;;12.43;;
12840;SDS011;6487;48.626;12.486;2023-03-19T00:35:55;19.60;;;14.37;;
12840;SDS011;6487;48.626;12.486;2023-03-19T00:38:24;20.03;;;14.03;;
12840;SDS011;6487;48.626;12.486;2023-03-19T00:40:52;18.80;;;12.70;;
12840;SDS011;6487;48.626;12.486;2023-03-19T00:43:21;18.03;;;12.03;;
12840;SDS011;6487;48.626;12.486;2023-03-19T00:45:50;17.57;;;12.17;;
12840;SDS011;6487;48.626;12.486;2023-03-19T00:48:18;15.87;;;12.83;;
12840;SDS011;6487;48.626;12.486;2023-03-19T00:50:47;18.93;;;12.90;;
12840;SDS011;6487;48.626;12.486;2023-03-19T00:53:15;18.43;;;13.03;;
12840;SDS011;6487;48.626;12.486;2023-03-19T00:55:44;16.87;;;14.00;;
12840;SDS011;6487;48.626;12.486;2023-03-19T00:58:12;16.83;;;13.27;;
12840;SDS011;6487;48.626;12.486;2023-03-19T01:00:42;18.63;;;13.13;;
12840;SDS011;6487;48.626;12.486;2023-03-19T01:03:10;16.93;;;12.67;;
12840;SDS011;6487;48.626;12.486;2023-03-19T01:05:38;16.80;;;12.00;;
12840;SDS011;6487;48.626;12.486;2023-03-19T01:08:07;15.27;;;12.97;;
12840;SDS011;6487;48.626;12.486;2023-03-19T01:10:35;17.43;;;13.20;;
12840;SDS011;6487;48.626;12.486;2023-03-19T01:13:04;15.00;;;12.63;;
12840;SDS011;6487;48.626;12.486;2023-03-19T01:15:34;16.57;;;12.53;;
12840;SDS011;6487;48.626;12.486;2023-03-19T01:18:04;14.83;;;12.10;;
12840;SDS011;6487;48.626;12.486;2023-03-19T01:20:33;17.53;;;11.90;;
12840;SDS011;6487;48.626;12.486;2023-03-19T01:23:03;15.73;;;12.53;;
12840;SDS011;6487;48.626;12.486;2023-03-19T01:25:32;14.03;;;11.13;;
12840;SDS011;6487;48.626;12.486;2023-03-19T01:28:01;17.73;;;11.20;;
12840;SDS011;6487;48.626;12.486;2023-03-19T01:30:30;16.33;;;12.10;;
12840;SDS011;6487;48.626;12.486;2023-03-19T01:32:58;15.50;;;12.13;;
12840;SDS011;6487;48.626;12.486;2023-03-19T01:35:28;16.03;;;11.73;;
12840;SDS011;6487;48.626;12.486;2023-03-19T01:37:57;14.83;;;12.43;;
12840;SDS011;6487;48.626;12.486;2023-03-19T01:40:25;16.73;;;11.90;;
12840;SDS011;6487;48.626;12.486;2023-03-19T01:42:54;14.60;;;11.93;;
12840;SDS011;6487;48.626;12.486;2023-03-19T01:45:30;17.57;;;12.40;;
12840;SDS011;6487;48.626;12.486;2023-03-19T01:48:03;14.57;;;12.20;;
12840;SDS011;6487;48.626;12.486;2023-03-19T01:50:36;14.77;;;11.63;;
12840;SDS011;6487;48.626;12.486;2023-03-19T01:53:08;13.63;;;11.40;;
12840;SDS011;6487;48.626;12.486;2023-03-19T01:55:39;15.47;;;11.43;;
12840;SDS011;6487;48.626;12.486;2023-03-19T01:58:10;17.23;;;11.63;;
12840;SDS011;6487;48.626;12.486;2023-03-19T02:00:39;16.67;;;11.97;;
12840;SDS011;6487;48.626;12.486;2023-03-19T02:03:08;13.43;;;10.87;;
12840;SDS011;6487;48.626;12.486;2023-03-19T02:05:38;14.17;;;11.20;;
12840;SDS011;6487;48.626;12.486;2023-03-19T02:08:11;18.10;;;12.53;;
12840;SDS011;6487;48.626;12.486;2023-03-19T02:10:43;17.30;;;12.60;;
12840;SDS011;6487;48.626;12.486;2023-03-19T02:13:13;15.67;;;11.63;;
12840;SDS011;6487;48.626;12.486;2023-03-19T02:15:42;14.97;;;11.87;;
12840;SDS011;6487;48.626;12.486;2023-03-19T02:18:14;17.53;;;13.17;;
12840;SDS011;6487;48.626;12.486;2023-03-19T02:20:45;12.57;;;11.20;;
12840;SDS011;6487;48.626;12.486;2023-03-19T02:23:20;18.67;;;12.20;;
12840;SDS011;6487;48.626;12.486;2023-03-19T02:26:02;15.47;;;12.47;;
12840;SDS011;6487;48.626;12.486;2023-03-19T02:28:35;13.37;;;10.77;;
12840;SDS011;6487;48.626;12.486;2023-03-19T02:31:05;14.57;;;11.43;;
12840;SDS011;6487;48.626;12.486;2023-03-19T02:33:35;15.23;;;12.47;;
12840;SDS011;6487;48.626;12.486;2023-03-19T02:36:04;14.87;;;12.00;;
12840;SDS011;6487;48.626;12.486;2023-03-19T02:38:37;14.67;;;11.63;;
12840;SDS011;6487;48.626;12.486;2023-03-19T02:41:08;14.57;;;10.97;;
12840;SDS011;6487;48.626;12.486;2023-03-19T02:43:38;16.43;;;12.00;;
12840;SDS011;6487;48.626;12.486;2023-03-19T02:46:09;16.00;;;11.83;;
12840;SDS011;6487;48.626;12.486;2023-03-19T02:48:39;15.40;;;11.87;;
12840;SDS011;6487;48.626;12.486;2023-03-19T02:51:08;19.23;;;11.57;;
12840;SDS011;6487;48.626;12.486;2023-03-19T02:53:37;18.20;;;12.33;;
12840;SDS011;6487;48.626;12.486;2023-03-19T02:56:05;13.57;;;11.57;;
12840;SDS011;6487;48.626;12.486;2023-03-19T02:58:36;16.50;;;12.00;;
12840;SDS011;6487;48.626;12.486;2023-03-19T03:01:04;16.27;;;12.17;;
12840;SDS011;6487;48.626;12.486;2023-03-19T03:03:33;15.60;;;12.33;;
12840;SDS011;6487;48.626;12.486;2023-03-19T03:06:01;16.23;;;11.33;;
12840;SDS011;6487;48.626;12.486;2023-03-19T03:08:30;13.43;;;11.03;;
12840;SDS011;6487;48.626;12.486;2023-03-19T03:10:58;16.83;;;11.87;;
12840;SDS011;6487;48.626;12.486;2023-03-19T03:13:29;16.00;;;11.00;;
12840;SDS011;6487;48.626;12.486;2023-03-19T03:15:59;15.70;;;10.93;;
12840;SDS011;6487;48.626;12.486;2023-03-19T03:18:28;18.80;;;10.93;;
12840;SDS011;6487;48.626;12.486;2023-03-19T03:20:56;15.33;;;12.47;;
12840;SDS011;6487;48.626;12.486;2023-03-19T03:23:28;14.83;;;12.37;;
12840;SDS011;6487;48.626;12.486;2023-03-19T03:25:57;16.20;;;12.30;;
12840;SDS011;6487;48.626;12.486;2023-03-19T03:28:25;14.73;;;12.57;;
12840;SDS011;6487;48.626;12.486;2023-03-19T03:30:56;15.67;;;12.20;;
12840;SDS011;6487;48.626;12.486;2023-03-19T03:33:29;17.47;;;12.47;;
12840;SDS011;6487;48.626;12.486;2023-03-19T03:35:58;12.90;;;11.57;;
12840;SDS011;6487;48.626;12.486;2023-03-19T03:38:26;16.90;;;12.77;;
12840;SDS011;6487;48.626;12.486;2023-03-19T03:40:55;15.40;;;11.50;;
12840;SDS011;6487;48.626;12.486;2023-03-19T03:43:23;16.33;;;12.13;;
12840;SDS011;6487;48.626;12.486;2023-03-19T03:45:52;17.70;;;13.50;;
12840;SDS011;6487;48.626;12.486;2023-03-19T03:48:21;16.67;;;11.53;;
12840;SDS011;6487;48.626;12.486;2023-03-19T03:50:52;18.57;;;11.70;;
12840;SDS011;6487;48.626;12.486;2023-03-19T03:53:23;15.80;;;11.63;;
12840;SDS011;6487;48.626;12.486;2023-03-19T03:55:51;13.20;;;11.17;;
12840;SDS011;6487;48.626;12.486;2023-03-19T03:58:20;16.03;;;12.63;;
12840;SDS011;6487;48.626;12.486;2023-03-19T04:00:49;15.20;;;11.33;;
12840;SDS011;6487;48.626;12.486;2023-03-19T04:03:17;17.07;;;11.70;;
12840;SDS011;6487;48.626;12.486;2023-03-19T04:05:47;14.90;;;11.43;;
12840;SDS011;6487;48.626;12.486;2023-03-19T04:08:15;19.33;;;13.67;;
12840;SDS011;6487;48.626;12.486;2023-03-19T04:10:44;15.00;;;12.30;;
12840;SDS011;6487;48.626;12.486;2023-03-19T04:13:12;14.30;;;12.40;;
12840;SDS011;6487;48.626;12.486;2023-03-19T04:15:41;16.07;;;12.00;;
12840;SDS011;6487;48.626;12.486;2023-03-19T04:18:09;16.87;;;12.23;;
12840;SDS011;6487;48.626;12.486;2023-03-19T04:20:37;16.27;;;12.87;;
12840;SDS011;6487;48.626;12.486;2023-03-19T04:23:08;15.70;;;12.23;;
12840;SDS011;6487;48.626;12.486;2023-03-19T04:25:37;13.63;;;11.77;;
12840;SDS011;6487;48.626;12.486;2023-03-19T04:28:06;16.70;;;12.60;;
12840;SDS011;6487;48.626;12.486;2023-03-19T04:30:35;15.00;;;11.67;;
12840;SDS011;6487;48.626;12.486;2023-03-19T04:33:04;16.90;;;11.83;;
12840;SDS011;6487;48.626;12.486;2023-03-19T04:35:33;15.20;;;11.60;;
12840;SDS011;6487;48.626;12.486;2023-03-19T04:38:01;15.17;;;12.13;;
12840;SDS011;6487;48.626;12.486;2023-03-19T04:40:32;15.33;;;12.37;;
12840;SDS011;6487;48.626;12.486;2023-03-19T04:43:00;14.33;;;11.53;;
12840;SDS011;6487;48.626;12.486;2023-03-19T04:45:29;17.33;;;12.70;;
12840;SDS011;6487;48.626;12.486;2023-03-19T04:48:01;13.50;;;10.60;;
12840;SDS011;6487;48.626;12.486;2023-03-19T04:50:30;14.77;;;11.53;;
12840;SDS011;6487;48.626;12.486;2023-03-19T04:52:59;13.40;;;11.93;;
12840;SDS011;6487;48.626;12.486;2023-03-19T04:55:28;15.67;;;11.47;;
12840;SDS011;6487;48.626;12.486;2023-03-19T04:57:57;13.97;;;11.87;;
12840;SDS011;6487;48.626;12.486;2023-03-19T05:00:26;14.43;;;10.97;;
12840;SDS011;6487;48.626;12.486;2023-03-19T05:02:55;15.13;;;11.23;;
12840;SDS011;6487;48.626;12.486;2023-03-19T05:05:24;14.67;;;11.27;;
12840;SDS011;6487;48.626;12.486;2023-03-19T05:07:52;14.57;;;10.67;;
12840;SDS011;6487;48.626;12.486;2023-03-19T05:10:22;18.40;;;12.27;;
12840;SDS011;6487;48.626;12.486;2023-03-19T05:12:53;15.30;;;12.00;;
12840;SDS011;6487;48.626;12.486;2023-03-19T05:15:23;14.60;;;11.50;;
12840;SDS011;6487;48.626;12.486;2023-03-19T05:17:54;16.00;;;12.00;;
12840;SDS011;6487;48.626;12.486;2023-03-19T05:20:23;15.97;;;12.03;;
12840;SDS011;6487;48.626;12.486;2023-03-19T05:22:52;14.63;;;11.30;;
12840;SDS011;6487;48.626;12.486;2023-03-19T05:25:20;13.97;;;10.93;;
12840;SDS011;6487;48.626;12.486;2023-03-19T05:27:49;15.53;;;11.80;;
12840;SDS011;6487;48.626;12.486;2023-03-19T05:30:17;13.13;;;11.57;;
12840;SDS011;6487;48.626;12.486;2023-03-19T05:32:47;13.70;;;11.10;;
12840;SDS011;6487;48.626;12.486;2023-03-19T05:35:15;16.00;;;11.93;;
12840;SDS011;6487;48.626;12.486;2023-03-19T05:37:49;15.43;;;12.13;;
12840;SDS011;6487;48.626;12.486;2023-03-19T05:40:18;16.40;;;11.40;;
12840;SDS011;6487;48.626;12.486;2023-03-19T05:42:47;14.20;;;11.53;;
12840;SDS011;6487;48.626;12.486;2023-03-19T05:45:16;15.47;;;11.00;;
12840;SDS011;6487;48.626;12.486;2023-03-19T05:47:47;16.60;;;11.90;;
12840;SDS011;6487;48.626;12.486;2023-03-19T05:50:15;16.60;;;11.10;;
12840;SDS011;6487;48.626;12.486;2023-03-19T05:52:44;15.80;;;11.43;;
12840;SDS011;6487;48.626;12.486;2023-03-19T05:55:12;17.40;;;11.83;;
12840;SDS011;6487;48.626;12.486;2023-03-19T05:57:45;14.50;;;11.13;;
12840;SDS011;6487;48.626;12.486;2023-03-19T06:00:17;16.03;;;11.90;;
12840;SDS011;6487;48.626;12.486;2023-03-19T06:02:48;15.50;;;11.93;;
12840;SDS011;6487;48.626;12.486;2023-03-19T06:05:16;15.03;;;10.40;;
12840;SDS011;6487;48.626;12.486;2023-03-19T06:07:45;20.73;;;12.07;;
12840;SDS011;6487;48.626;12.486;2023-03-19T06:10:16;14.90;;;11.57;;
12840;SDS011;6487;48.626;12.486;2023-03-19T06:12:44;15.13;;;12.30;;
12840;SDS011;6487;48.626;12.486;2023-03-19T06:15:13;15.47;;;12.73;;
12840;SDS011;6487;48.626;12.486;2023-03-19T06:17:42;17.30;;;13.87;;
12840;SDS011;6487;48.626;12.486;2023-03-19T06:20:12;17.40;;;12.90;;
12840;SDS011;6487;48.626;12.486;2023-03-19T06:22:41;15.37;;;12.90;;
12840;SDS011;6487;48.626;12.486;2023-03-19T06:25:10;16.47;;;12.27;;
12840;SDS011;6487;48.626;12.486;2023-03-19T06:27:38;15.27;;;12.33;;
12840;SDS011;6487;48.626;12.486;2023-03-19T06:30:07;14.57;;;12.83;;
12840;SDS011;6487;48.626;12.486;2023-03-19T06:32:37;14.47;;;12.03;;
12840;SDS011;6487;48.626;12.486;2023-03-19T06:35:06;17.17;;;13.80;;
12840;SDS011;6487;48.626;12.486;2023-03-19T06:37:36;16.23;;;13.20;;
12840;SDS011;6487;48.626;12.486;2023-03-19T06:40:09;18.27;;;13.70;;
12840;SDS011;6487;48.626;12.486;2023-03-19T06:42:38;19.67;;;13.57;;
12840;SDS011;6487;48.626;12.486;2023-03-19T06:45:07;19.83;;;14.40;;
12840;SDS011;6487;48.626;12.486;2023-03-19T06:47:36;20.57;;;15.20;;
12840;SDS011;6487;48.626;12.486;2023-03-19T06:50:07;16.00;;;13.90;;
12840;SDS011;6487;48.626;12.486;2023-03-19T06:52:38;18.00;;;14.60;;
12840;SDS011;6487;48.626;12.486;2023-03-19T06:55:07;16.73;;;14.13;;
12840;SDS011;6487;48.626;12.486;2023-03-19T06:57:37;17.73;;;15.03;;
12840;SDS011;6487;48.626;12.486;2023-03-19T07:00:06;16.33;;;14.43;;
12840;SDS011;6487;48.626;12.486;2023-03-19T07:02:36;18.83;;;14.77;;
12840;SDS011;6487;48.626;12.486;2023-03-19T07:05:05;21.73;;;15.97;;
12840;SDS011;6487;48.626;12.486;2023-03-19T07:07:34;17.87;;;15.93;;
12840;SDS011;6487;48.626;12.486;2023-03-19T07:10:04;18.20;;;14.90;;
12840;SDS011;6487;48.626;12.486;2023-03-19T07:12:33;16.27;;;14.30;;
12840;SDS011;6487;48.626;12.486;2023-03-19T07:15:02;16.67;;;14.57;;
12840;SDS011;6487;48.626;12.486;2023-03-19T07:17:31;18.20;;;14.77;;
12840;SDS011;6487;48.626;12.486;2023-03-19T07:20:00;16.23;;;14.63;;
12840;SDS011;6487;48.626;12.486;2023-03-19T07:22:35;16.17;;;14.30;;
12840;SDS011;6487;48.626;12.486;2023-03-19T07:25:05;18.13;;;13.70;;
12840;SDS011;6487;48.626;12.486;2023-03-19T07:27:34;18.53;;;15.90;;
12840;SDS011;6487;48.626;12.486;2023-03-19T07:30:05;17.73;;;15.00;;
12840;SDS011;6487;48.626;12.486;2023-03-19T07:32:35;18.27;;;15.43;;
12840;SDS011;6487;48.626;12.486;2023-03-19T07:35:04;18.80;;;14.77;;
12840;SDS011;6487;48.626;12.486;2023-03-19T07:37:34;17.77;;;14.60;;
12840;SDS011;6487;48.626;12.486;2023-03-19T07:40:04;17.00;;;15.17;;
12840;SDS011;6487;48.626;12.486;2023-03-19T07:42:37;22.23;;;16.53;;
12840;SDS011;6487;48.626;12.486;2023-03-19T07:45:08;21.23;;;16.10;;
12840;SDS011;6487;48.626;12.486;2023-03-19T07:47:37;19.60;;;17.40;;
12840;SDS011;6487;48.626;12.486;2023-03-19T07:50:06;20.30;;;17.47;;
12840;SDS011;6487;48.626;12.486;2023-03-19T07:52:36;19.70;;;16.70;;
12840;SDS011;6487;48.626;12.486;2023-03-19T07:55:06;21.57;;;17.37;;
12840;SDS011;6487;48.626;12.486;2023-03-19T07:57:35;18.57;;;16.27;;
12840;SDS011;6487;48.626;12.486;2023-03-19T08:00:04;20.13;;;15.87;;
12840;SDS011;6487;48.626;12.486;2023-03-19T08:02:34;20.20;;;15.70;;
12840;SDS011;6487;48.626;12.486;2023-03-19T08:05:03;19.37;;;16.70;;
12840;SDS011;6487;48.626;12.486;2023-03-19T08:07:32;22.03;;;17.73;;
12840;SDS011;6487;48.626;12.486;2023-03-19T08:10:00;43.97;;;32.57;;
12840;SDS011;6487;48.626;12.486;2023-03-19T08:12:36;22.83;;;19.90;;
12840;SDS011;6487;48.626;12.486;2023-03-19T08:15:06;20.37;;;17.23;;
12840;SDS011;6487;48.626;12.486;2023-03-19T08:17:37;19.27;;;16.60;;
12840;SDS011;6487;48.626;12.486;2023-03-19T08:20:09;20.47;;;16.00;;
12840;SDS011;6487;48.626;12.486;2023-03-19T08:22:42;17.23;;;15.43;;
12840;SDS011;6487;48.626;12.486;2023-03-19T08:25:15;16.87;;;15.17;;
12840;SDS011;6487;48.626;12.486;2023-03-19T08:27:45;17.80;;;15.93;;
12840;SDS011;6487;48.626;12.486;2023-03-19T08:30:14;19.70;;;15.13;;
12840;SDS011;6487;48.626;12.486;2023-03-19T08:32:45;18.73;;;15.83;;
12840;SDS011;6487;48.626;12.486;2023-03-19T08:35:14;17.13;;;15.27;;
12840;SDS011;6487;48.626;12.486;2023-03-19T08:37:43;21.67;;;15.57;;
12840;SDS011;6487;48.626;12.486;2023-03-19T08:40:12;17.87;;;16.00;;
12840;SDS011;6487;48.626;12.486;2023-03-19T08:42:40;20.23;;;16.77;;
12840;SDS011;6487;48.626;12.486;2023-03-19T08:45:12;18.90;;;15.63;;
12840;SDS011;6487;48.626;12.486;2023-03-19T08:47:42;19.93;;;17.03;;
12840;SDS011;6487;48.626;12.486;2023-03-19T08:50:11;18.93;;;16.67;;
12840;SDS011;6487;48.626;12.486;2023-03-19T08:52:40;18.63;;;16.40;;
12840;SDS011;6487;48.626;12.486;2023-03-19T08:55:09;19.27;;;16.60;;
12840;SDS011;6487;48.626;12.486;2023-03-19T08:57:39;18.13;;;15.57;;
12840;SDS011;6487;48.626;12.486;2023-03-19T09:00:08;21.00;;;16.77;;
12840;SDS011;6487;48.626;12.486;2023-03-19T09:02:39;22.47;;;16.57;;
12840;SDS011;6487;48.626;12.486;2023-03-19T09:05:07;17.87;;;15.73;;
12840;SDS011;6487;48.626;12.486;2023-03-19T09:07:36;17.03;;;15.30;;
12840;SDS011;6487;48.626;12.486;2023-03-19T09:10:05;19.47;;;15.80;;
12840;SDS011;6487;48.626;12.486;2023-03-19T09:12:34;23.57;;;16.70;;
12840;SDS011;6487;48.626;12.486;2023-03-19T09:15:02;18.87;;;16.87;;
12840;SDS011;6487;48.626;12.486;2023-03-19T09:17:32;20.00;;;16.13;;
12840;SDS011;6487;48.626;12.486;2023-03-19T09:20:02;17.73;;;15.93;;
12840;SDS011;6487;48.626;12.486;2023-03-19T09:22:32;20.80;;;17.03;;
12840;SDS011;6487;48.626;12.486;2023-03-19T09:25:01;19.43;;;15.97;;
12840;SDS011;6487;48.626;12.486;2023-03-19T09:27:30;20.87;;;16.40;;
12840;SDS011;6487;48.626;12.486;2023-03-19T09:29:58;18.73;;;16.37;;
12840;SDS011;6487;48.626;12.486;2023-03-19T09:32:26;18.13;;;15.83;;
12840;SDS011;6487;48.626;12.486;2023-03-19T09:34:55;18.53;;;15.83;;
12840;SDS011;6487;48.626;12.486;2023-03-19T09:37:25;17.43;;;15.40;;
12840;SDS011;6487;48.626;12.486;2023-03-19T09:39:53;18.70;;;16.70;;
12840;SDS011;6487;48.626;12.486;2023-03-19T09:42:26;20.80;;;17.23;;
12840;SDS011;6487;48.626;12.486;2023-03-19T09:45:10;18.43;;;16.53;;
12840;SDS011;6487;48.626;12.486;2023-03-19T09:47:41;20.70;;;17.30;;
12840;SDS011;6487;48.626;12.486;2023-03-19T09:50:13;19.23;;;16.67;;
12840;SDS011;6487;48.626;12.486;2023-03-19T09:52:47;17.90;;;15.83;;
12840;SDS011;6487;48.626;12.486;2023-03-19T09:55:26;18.30;;;16.40;;
12840;SDS011;6487;48.626;12.486;2023-03-19T09:58:04;17.77;;;15.87;;
12840;SDS011;6487;48.626;12.486;2023-03-19T10:00:41;17.00;;;15.30;;
12840;SDS011;6487;48.626;12.486;2023-03-19T10:03:25;15.97;;;14.23;;
12840;SDS011;6487;48.626;12.486;2023-03-19T10:06:22;15.07;;;13.50;;
12840;SDS011;6487;48.626;12.486;2023-03-19T10:09:07;14.27;;;12.77;;
12840;SDS011;6487;48.626;12.486;2023-03-19T10:11:55;14.33;;;12.17;;
12840;SDS011;6487;48.626;12.486;2023-03-19T10:14:50;13.57;;;12.23;;
12840;SDS011;6487;48.626;12.486;2023-03-19T10:17:40;14.80;;;13.03;;
12840;SDS011;6487;48.626;12.486;2023-03-19T10:20:20;12.50;;;11.30;;
12840;SDS011;6487;48.626;12.486;2023-03-19T10:22:59;13.23;;;11.83;;
12840;SDS011;6487;48.626;12.486;2023-03-19T10:25:41;12.70;;;11.43;;
12840;SDS011;6487;48.626;12.486;2023-03-19T10:28:13;12.40;;;11.10;;
12840;SDS011;6487;48.626;12.486;2023-03-19T10:30:45;14.70;;;12.17;;
12840;SDS011;6487;48.626;12.486;2023-03-19T10:33:24;12.87;;;11.57;;
12840;SDS011;6487;48.626;12.486;2023-03-19T10:36:00;11.57;;;10.43;;
12840;SDS011;6487;48.626;12.486;2023-03-19T10:38:37;11.07;;;9.97;;
12840;SDS011;6487;48.626;12.486;2023-03-19T10:41:17;15.70;;;9.30;;
12840;SDS011;6487;48.626;12.486;2023-03-19T10:43:55;6.63;;;5.20;;
12840;SDS011;6487;48.626;12.486;2023-03-19T10:46:35;5.53;;;5.00;;
12840;SDS011;6487;48.626;12.486;2023-03-19T10:49:05;5.43;;;4.80;;
12840;SDS011;6487;48.626;12.486;2023-03-19T10:51:39;5.30;;;4.67;;
12840;SDS011;6487;48.626;12.486;2023-03-19T10:54:19;5.20;;;4.70;;
12840;SDS011;6487;48.626;12.486;2023-03-19T10:56:53;4.80;;;4.27;;
12840;SDS011;6487;48.626;12.486;2023-03-19T10:59:24;7.70;;;4.63;;
12840;SDS011;6487;48.626;12.486;2023-03-19T11:01:58;4.97;;;4.33;;
12840;SDS011;6487;48.626;12.486;2023-03-19T11:04:40;6.00;;;4.23;;
12840;SDS011;6487;48.626;12.486;2023-03-19T11:07:09;5.83;;;4.67;;
12840;SDS011;6487;48.626;12.486;2023-03-19T11:09:40;5.27;;;4.30;;
12840;SDS011;6487;48.626;12.486;2023-03-19T11:12:19;4.43;;;3.80;;
12840;SDS011;6487;48.626;12.486;2023-03-19T11:14:51;5.90;;;4.13;;
12840;SDS011;6487;48.626;12.486;2023-03-19T11:17:24;5.90;;;3.87;;
12840;SDS011;6487;48.626;12.486;2023-03-19T11:19:55;4.70;;;3.77;;
12840;SDS011;6487;48.626;12.486;2023-03-19T11:22:26;4.80;;;3.37;;
12840;SDS011;6487;48.626;12.486;2023-03-19T11:24:59;3.97;;;3.40;;
12840;SDS011;6487;48.626;12.486;2023-03-19T11:27:31;3.83;;;3.53;;
12840;SDS011;6487;48.626;12.486;2023-03-19T11:30:02;4.80;;;3.50;;
12840;SDS011;6487;48.626;12.486;2023-03-19T11:32:47;4.37;;;3.97;;
12840;SDS011;6487;48.626;12.486;2023-03-19T11:35:35;6.80;;;3.90;;
12840;SDS011;6487;48.626;12.486;2023-03-19T11:38:10;3.77;;;3.47;;
12840;SDS011;6487;48.626;12.486;2023-03-19T11:40:45;4.00;;;3.60;;
12840;SDS011;6487;48.626;12.486;2023-03-19T11:43:28;4.40;;;3.47;;
12840;SDS011;6487;48.626;12.486;2023-03-19T11:46:11;6.13;;;3.83;;
12840;SDS011;6487;48.626;12.486;2023-03-19T11:49:10;4.57;;;3.60;;
12840;SDS011;6487;48.626;12.486;2023-03-19T11:52:14;4.27;;;3.30;;
12840;SDS011;6487;48.626;12.486;2023-03-19T11:54:52;4.57;;;3.57;;
12840;SDS011;6487;48.626;12.486;2023-03-19T11:57:42;4.57;;;3.50;;
12840;SDS011;6487;48.626;12.486;2023-03-19T12:00:28;3.53;;;3.20;;
12840;SDS011;6487;48.626;12.486;2023-03-19T12:03:20;4.67;;;3.47;;
12840;SDS011;6487;48.626;12.486;2023-03-19T12:06:40;4.20;;;3.27;;
12840;SDS011;6487;48.626;12.486;2023-03-19T12:09:21;4.57;;;3.40;;
12840;SDS011;6487;48.626;12.486;2023-03-19T12:11:57;4.30;;;3.13;;
12840;SDS011;6487;48.626;12.486;2023-03-19T12:14:37;3.93;;;3.40;;
12840;SDS011;6487;48.626;12.486;2023-03-19T12:17:22;4.77;;;3.40;;
12840;SDS011;6487;48.626;12.486;2023-03-19T12:20:12;6.03;;;4.20;;
12840;SDS011;6487;48.626;12.486;2023-03-19T12:22:55;4.83;;;4.33;;
12840;SDS011;6487;48.626;12.486;2023-03-19T12:25:36;4.10;;;3.63;;
12840;SDS011;6487;48.626;12.486;2023-03-19T12:28:21;7.13;;;5.17;;
12840;SDS011;6487;48.626;12.486;2023-03-19T12:30:58;5.57;;;4.43;;
12840;SDS011;6487;48.626;12.486;2023-03-19T12:33:59;6.47;;;4.30;;
12840;SDS011;6487;48.626;12.486;2023-03-19T12:36:48;4.83;;;3.77;;
12840;SDS011;6487;48.626;12.486;2023-03-19T12:39:22;4.13;;;2.80;;
12840;SDS011;6487;48.626;12.486;2023-03-19T12:41:59;2.97;;;2.27;;
12840;SDS011;6487;48.626;12.486;2023-03-19T12:44:31;2.80;;;2.60;;
12840;SDS011;6487;48.626;12.486;2023-03-19T12:47:05;3.73;;;2.60;;
12840;SDS011;6487;48.626;12.486;2023-03-19T12:49:40;5.27;;;3.70;;
12840;SDS011;6487;48.626;12.486;2023-03-19T12:52:16;4.73;;;3.13;;
12840;SDS011;6487;48.626;12.486;2023-03-19T12:54:49;3.00;;;2.10;;
12840;SDS011;6487;48.626;12.486;2023-03-19T12:57:26;2.70;;;2.17;;
12840;SDS011;6487;48.626;12.486;2023-03-19T13:00:03;2.73;;;2.53;;
12840;SDS011;6487;48.626;12.486;2023-03-19T13:02:39;2.27;;;2.07;;
12840;SDS011;6487;48.626;12.486;2023-03-19T13:05:18;2.63;;;2.40;;
12840;SDS011;6487;48.626;12.486;2023-03-19T13:07:57;2.40;;;2.20;;
12840;SDS011;6487;48.626;12.486;2023-03-19T13:10:30;4.27;;;2.73;;
12840;SDS011;6487;48.626;12.486;2023-03-19T13:12:59;3.03;;;2.03;;
12840;SDS011;6487;48.626;12.486;2023-03-19T13:15:34;4.03;;;2.67;;
12840;SDS011;6487;48.626;12.486;2023-03-19T13:18:12;3.43;;;2.13;;
12840;SDS011;6487;48.626;12.486;2023-03-19T13:20:56;3.50;;;2.20;;
12840;SDS011;6487;48.626;12.486;2023-03-19T13:23:41;3.43;;;2.40;;
12840;SDS011;6487;48.626;12.486;2023-03-19T13:26:13;3.53;;;2.47;;
12840;SDS011;6487;48.626;12.486;2023-03-19T13:28:53;2.80;;;2.37;;
12840;SDS011;6487;48.626;12.486;2023-03-19T13:31:27;3.10;;;2.47;;
12840;SDS011;6487;48.626;12.486;2023-03-19T13:34:00;3.60;;;1.90;;
12840;SDS011;6487;48.626;12.486;2023-03-19T13:36:36;2.80;;;1.93;;
12840;SDS011;6487;48.626;12.486;2023-03-19T13:39:10;3.77;;;2.50;;
12840;SDS011;6487;48.626;12.486;2023-03-19T13:41:46;3.30;;;2.43;;
12840;SDS011;6487;48.626;12.486;2023-03-19T13:44:27;2.60;;;2.20;;
12840;SDS011;6487;48.626;12.486;2023-03-19T13:47:36;3.87;;;2.20;;
12840;SDS011;6487;48.626;12.486;2023-03-19T13:50:24;2.97;;;2.27;;
12840;SDS011;6487;48.626;12.486;2023-03-19T13:53:36;2.37;;;2.17;;
12840;SDS011;6487;48.626;12.486;2023-03-19T13:56:08;3.07;;;2.10;;
12840;SDS011;6487;48.626;12.486;2023-03-19T14:01:53;3.37;;;1.97;;
12840;SDS011;6487;48.626;12.486;2023-03-19T14:04:25;2.13;;;1.90;;
12840;SDS011;6487;48.626;12.486;2023-03-19T14:06:56;2.67;;;1.83;;
12840;SDS011;6487;48.626;12.486;2023-03-19T14:09:38;2.37;;;2.03;;
12840;SDS011;6487;48.626;12.486;2023-03-19T14:12:10;3.83;;;2.23;;
12840;SDS011;6487;48.626;12.486;2023-03-19T14:14:49;3.23;;;2.00;;
12840;SDS011;6487;48.626;12.486;2023-03-19T14:17:24;3.60;;;2.30;;
12840;SDS011;6487;48.626;12.486;2023-03-19T14:19:55;2.33;;;2.00;;
12840;SDS011;6487;48.626;12.486;2023-03-19T14:22:35;3.33;;;2.27;;
12840;SDS011;6487;48.626;12.486;2023-03-19T14:25:14;2.63;;;2.03;;
12840;SDS011;6487;48.626;12.486;2023-03-19T14:27:46;3.47;;;2.03;;
12840;SDS011;6487;48.626;12.486;2023-03-19T14:30:18;2.83;;;1.67;;
12840;SDS011;6487;48.626;12.486;2023-03-19T14:32:56;2.27;;;1.67;;
12840;SDS011;6487;48.626;12.486;2023-03-19T14:35:30;3.20;;;2.00;;
12840;SDS011;6487;48.626;12.486;2023-03-19T14:38:03;4.17;;;2.00;;
12840;SDS011;6487;48.626;12.486;2023-03-19T14:40:43;2.07;;;1.77;;
12840;SDS011;6487;48.626;12.486;2023-03-19T14:43:21;5.53;;;2.00;;
12840;SDS011;6487;48.626;12.486;2023-03-19T14:46:15;1.97;;;1.77;;
12840;SDS011;6487;48.626;12.486;2023-03-19T14:52:13;3.37;;;2.10;;
12840;SDS011;6487;48.626;12.486;2023-03-19T14:54:45;3.57;;;2.10;;
12840;SDS011;6487;48.626;12.486;2023-03-19T14:57:20;4.40;;;2.50;;
12840;SDS011;6487;48.626;12.486;2023-03-19T14:59:53;2.83;;;2.23;;
12840;SDS011;6487;48.626;12.486;2023-03-19T15:02:32;3.50;;;2.40;;
12840;SDS011;6487;48.626;12.486;2023-03-19T15:05:03;3.70;;;2.30;;
12840;SDS011;6487;48.626;12.486;2023-03-19T15:07:35;3.77;;;2.30;;